createdAt,value
2022-12-09T00:02:28.354Z,24.5
2022-12-09T00:08:11.875Z,24.2
2022-12-09T00:13:19.937Z,24.3
2022-12-09T00:18:44.312Z,25.1
2022-12-09T00:24:07.501Z,26.7
2022-12-09T00:29:31.302Z,27.3
2022-12-09T00:35:12.749Z,26.9
2022-12-09T00:40:53.505Z,25.4
2022-12-09T00:46:33.557Z,24.9
2022-12-09T00:51:58.858Z,24.6
2022-12-09T00:57:39.361Z,24.3
2022-12-09T01:03:19.701Z,24.5
2022-12-09T01:09:01.290Z,25.9
2022-12-09T01:14:25.298Z,27.1
2022-12-09T01:19:49.793Z,27.1
2022-12-09T01:25:30.639Z,25.7
2022-12-09T01:30:56.004Z,25.1
2022-12-09T01:36:20.324Z,24.6
2022-12-09T01:41:30.837Z,24.2
2022-12-09T01:47:10.726Z,24.6
2022-12-09T01:52:50.554Z,25.9
2022-12-09T01:58:31.497Z,27.1
2022-12-09T02:04:14.435Z,27.1
2022-12-09T02:09:55.563Z,25.7
2022-12-09T02:15:36.180Z,25.1
2022-12-09T02:21:18.196Z,24.5
2022-12-09T02:26:42.580Z,24.1
2022-12-09T02:32:25.122Z,24.6
2022-12-09T02:38:06.173Z,26.3
2022-12-09T02:43:49.536Z,27.1
2022-12-09T02:49:32.561Z,26.9
2022-12-09T02:55:13.839Z,25.3
2022-12-09T03:00:24.417Z,24.8
2022-12-09T03:05:51.518Z,24.4
2022-12-09T03:11:32.778Z,24.1
2022-12-09T03:17:13.746Z,23.8
2022-12-09T03:22:54.854Z,24.4
2022-12-09T03:28:20.706Z,26.2
2022-12-09T03:33:48.134Z,27
2022-12-09T03:39:29.192Z,26.9
2022-12-09T03:45:00.450Z,25.4
2022-12-09T03:50:10.533Z,24.9
2022-12-09T03:55:52.096Z,24.4
2022-12-09T04:01:17.958Z,24
2022-12-09T04:06:44.930Z,24.7
2022-12-09T04:12:27.055Z,26.4
2022-12-09T04:18:12.300Z,27.1
2022-12-09T04:23:59.035Z,26.8
2022-12-09T04:29:39.351Z,25.3
2022-12-09T04:35:21.676Z,24.7
2022-12-09T04:40:52.926Z,24.3
2022-12-09T04:46:02.610Z,24.4
2022-12-09T04:51:35.715Z,25
2022-12-09T04:57:17.681Z,26.6
2022-12-09T05:03:01.652Z,27.1
2022-12-09T05:08:49.205Z,26.3
2022-12-09T05:14:16.428Z,25.1
2022-12-09T05:19:29.641Z,24.7
2022-12-09T05:25:00.504Z,24.3
2022-12-09T05:30:30.761Z,24.4
2022-12-09T05:36:25.590Z,25.3
2022-12-09T05:42:10.056Z,26.8
2022-12-09T05:48:02.218Z,27
2022-12-09T05:53:47.003Z,25.8
2022-12-09T05:59:21.635Z,25
2022-12-09T06:04:33.453Z,24.5
2022-12-09T06:10:25.154Z,24.1
2022-12-09T06:16:12.182Z,24.4
2022-12-09T06:21:56.089Z,26
2022-12-09T06:27:46.863Z,27.1
2022-12-09T06:34:02.018Z,27
2022-12-09T06:39:44.336Z,25.4
2022-12-09T06:45:14.607Z,24.9
2022-12-09T06:50:59.856Z,24.3
2022-12-09T06:56:45.488Z,24.1
2022-12-09T07:02:15.025Z,24.9
2022-12-09T07:08:03.971Z,26.5
2022-12-09T07:13:49.177Z,27.1
2022-12-09T07:19:36.234Z,26.4
2022-12-09T07:25:27.901Z,25.1
2022-12-09T07:31:17.851Z,24.7
2022-12-09T07:37:10.839Z,24.3
2022-12-09T07:42:59.045Z,24.1
2022-12-09T07:48:29.855Z,24.6
2022-12-09T07:54:19.882Z,26.4
2022-12-09T08:00:02.875Z,27
2022-12-09T08:05:48.835Z,26.8
2022-12-09T08:11:44.415Z,26.3
2022-12-09T08:17:36.488Z,25.3
2022-12-09T08:23:22.760Z,25.4
2022-12-09T08:29:08.466Z,26.9
2022-12-09T08:34:59.051Z,27.1
2022-12-09T08:40:43.849Z,26.6
2022-12-09T08:46:28.444Z,26.3
2022-12-09T08:52:15.725Z,24.9
2022-12-09T08:58:02.418Z,26.4
2022-12-09T09:03:47.282Z,27.1
2022-12-09T09:09:37.174Z,26.9
2022-12-09T09:15:28.305Z,26.4
2022-12-09T09:21:18.270Z,25.4
2022-12-09T09:27:03.398Z,25.9
2022-12-09T09:32:48.794Z,27.2
2022-12-09T09:38:41.758Z,27
2022-12-09T09:44:26.540Z,26.6
2022-12-09T09:49:57.360Z,26.2
2022-12-09T09:55:48.444Z,25.3
2022-12-09T10:01:36.733Z,27.1
2022-12-09T10:07:27.293Z,27.2
2022-12-09T10:13:23.956Z,26.9
2022-12-09T10:18:59.731Z,26.4
2022-12-09T10:24:55.485Z,25.3
2022-12-09T10:30:46.447Z,26.4
2022-12-09T10:36:35.964Z,27.4
2022-12-09T10:42:20.287Z,27.1
2022-12-09T10:48:33.624Z,26.6
2022-12-09T10:54:21.840Z,26.2
2022-12-09T11:00:05.252Z,25.3
2022-12-09T11:05:59.169Z,27.2
2022-12-09T11:11:51.919Z,27.3
2022-12-09T11:17:47.185Z,26.9
2022-12-09T11:23:36.713Z,26.4
2022-12-09T11:29:27.949Z,25.3
2022-12-09T11:36:00.711Z,26.7
2022-12-09T11:41:28.783Z,27.4
2022-12-09T11:47:14.914Z,27
2022-12-09T11:53:29.047Z,26.6
2022-12-09T11:58:51.720Z,25.6
2022-12-09T12:04:37.348Z,25.8
2022-12-09T12:10:06.467Z,27.4
2022-12-09T12:15:29.002Z,27.3
2022-12-09T12:20:51.979Z,26.9
2022-12-09T12:26:37.446Z,26.4
2022-12-09T12:32:22.193Z,25.3
2022-12-09T12:38:50.093Z,26.4
2022-12-09T12:44:32.915Z,27.4
2022-12-09T12:50:12.276Z,27.1
2022-12-09T12:56:30.700Z,26.7
2022-12-09T13:02:10.529Z,25.5
2022-12-09T13:07:52.482Z,26.3
2022-12-09T13:13:31.240Z,27.6
2022-12-09T13:19:16.484Z,27.3
2022-12-09T13:24:59.886Z,26.9
2022-12-09T13:30:23.391Z,26.3
2022-12-09T13:35:52.130Z,25.6
2022-12-09T13:41:20.625Z,27.4
2022-12-09T13:46:59.561Z,27.4
2022-12-09T13:52:42.245Z,27
2022-12-09T13:58:27.685Z,26.5
2022-12-09T14:03:37.556Z,25.4
2022-12-09T14:09:22.749Z,26.9
2022-12-09T14:15:00.341Z,27.6
2022-12-09T14:20:39.721Z,27.1
2022-12-09T14:26:23.985Z,26.8
2022-12-09T14:32:02.702Z,25.8
2022-12-09T14:37:11.325Z,26.1
2022-12-09T14:43:17.698Z,27.5
2022-12-09T14:48:59.600Z,27.3
2022-12-09T14:54:49.353Z,26.9
2022-12-09T15:00:31.761Z,26.4
2022-12-09T15:06:35.833Z,25.4
2022-12-09T15:12:14.221Z,27.1
2022-12-09T15:17:56.442Z,27.4
2022-12-09T15:23:45.112Z,27
2022-12-09T15:29:17.186Z,26.5
2022-12-09T15:34:43.147Z,25.4
2022-12-09T15:40:21.475Z,26.3
2022-12-09T15:45:50.316Z,27.5
